Time;durP1;ratioP1;P1;durP2;ratioP2;P2;SDS_P1;SDS_P2;PMS_P1;PMS_P2;Temp;Humidity;BMP_temperature;BMP_pressure;BME280_temperature;BME280_humidity;BME280_pressure;Samples;Min_cycle;Max_cycle;Signal;HPM_P1;HPM_P2
2022/03/18 00:02:25;;;;;;;22.80;9.18;;;;;;;;;;5093025;28;20016;-38
2022/03/18 00:04:51;;;;;;;17.98;9.85;;;;;;;;;;5092584;28;20062;-38
2022/03/18 00:07:17;;;;;;;14.80;6.97;;;;;;;;;;5091292;28;20381;-38
2022/03/18 00:09:43;;;;;;;16.38;8.88;;;;;;;;;;5092953;28;20389;-38
2022/03/18 00:12:09;;;;;;;16.27;8.07;;;;;;;;;;5092405;28;20028;-38
2022/03/18 00:14:35;;;;;;;14.98;8.02;;;;;;;;;;5092714;28;20024;-38
2022/03/18 00:17:00;;;;;;;18.08;8.90;;;;;;;;;;5092507;28;20073;-38
2022/03/18 00:19:27;;;;;;;15.95;8.82;;;;;;;;;;5092298;28;20109;-38
2022/03/18 00:22:00;;;;;;;16.98;9.68;;;;;;;;;;5092945;28;20385;-38
2022/03/18 00:24:25;;;;;;;15.23;8.70;;;;;;;;;;5092370;28;20530;-38
2022/03/18 00:26:51;;;;;;;15.68;8.77;;;;;;;;;;5092582;28;20111;-38
2022/03/18 00:29:16;;;;;;;21.45;8.90;;;;;;;;;;5092355;28;20374;-43
2022/03/18 00:31:42;;;;;;;23.58;9.57;;;;;;;;;;5092163;28;20032;-38
2022/03/18 00:34:08;;;;;;;15.90;9.60;;;;;;;;;;5092250;28;20028;-38
2022/03/18 00:36:34;;;;;;;16.15;8.10;;;;;;;;;;5092181;28;20024;-38
2022/03/18 00:39:00;;;;;;;16.42;9.32;;;;;;;;;;5092445;28;20024;-38
2022/03/18 00:41:27;;;;;;;18.65;9.23;;;;;;;;;;5091907;28;20031;-38
2022/03/18 00:43:53;;;;;;;18.67;8.90;;;;;;;;;;5092481;28;20096;-38
2022/03/18 00:46:22;;;;;;;15.43;8.55;;;;;;;;;;5091815;28;20081;-39
2022/03/18 00:54:15;;;;;;;16.52;8.45;;;;;;;;;;5091933;28;20482;-38
2022/03/18 00:56:40;;;;;;;18.20;9.95;;;;;;;;;;5092075;28;20055;-38
2022/03/18 00:59:06;;;;;;;17.63;9.07;;;;;;;;;;5092284;28;20100;-38
2022/03/18 01:01:32;;;;;;;17.70;8.35;;;;;;;;;;5092316;28;20016;-38
2022/03/18 01:03:57;;;;;;;16.02;8.60;;;;;;;;;;5092249;28;20028;-38
2022/03/18 01:06:23;;;;;;;20.05;10.55;;;;;;;;;;5092050;28;20533;-38
2022/03/18 01:08:48;;;;;;;20.90;10.52;;;;;;;;;;5091861;28;20382;-38
2022/03/18 01:11:14;;;;;;;21.30;10.10;;;;;;;;;;5090806;28;20073;-38
2022/03/18 01:13:39;;;;;;;15.07;9.10;;;;;;;;;;5092004;28;20373;-38
2022/03/18 01:16:05;;;;;;;17.45;9.10;;;;;;;;;;5092073;28;20478;-38
2022/03/18 01:18:30;;;;;;;23.30;10.00;;;;;;;;;;5091907;28;20032;-38
2022/03/18 01:20:56;;;;;;;14.80;8.55;;;;;;;;;;5091795;28;20020;-38
2022/03/18 01:23:21;;;;;;;17.48;9.02;;;;;;;;;;5091875;28;20032;-38
2022/03/18 01:25:47;;;;;;;17.17;8.80;;;;;;;;;;5091678;28;20019;-39
2022/03/18 01:28:12;;;;;;;24.30;10.00;;;;;;;;;;5092020;28;20024;-38
2022/03/18 01:30:37;;;;;;;16.15;8.38;;;;;;;;;;5091389;28;20116;-38
2022/03/18 01:33:03;;;;;;;22.83;10.50;;;;;;;;;;5091901;28;20028;-38
2022/03/18 01:35:29;;;;;;;18.35;9.65;;;;;;;;;;5091598;28;20122;-39
2022/03/18 01:37:54;;;;;;;23.80;9.63;;;;;;;;;;5091512;28;20039;-38
2022/03/18 01:40:19;;;;;;;19.48;9.18;;;;;;;;;;5091524;28;20103;-38
2022/03/18 01:42:45;;;;;;;13.65;9.68;;;;;;;;;;5091822;28;20146;-38
2022/03/18 01:45:11;;;;;;;18.10;9.65;;;;;;;;;;5091490;28;20032;-38
2022/03/18 01:47:42;;;;;;;18.38;8.45;;;;;;;;;;5091459;28;20064;-38
2022/03/18 01:50:09;;;;;;;21.25;9.48;;;;;;;;;;5091560;28;20141;-39
2022/03/18 01:52:34;;;;;;;19.85;9.82;;;;;;;;;;5091358;28;20551;-38
2022/03/18 01:55:00;;;;;;;23.25;10.43;;;;;;;;;;5091486;28;20028;-38
2022/03/18 01:57:28;;;;;;;26.38;11.38;;;;;;;;;;5091414;28;20068;-38
2022/03/18 01:59:56;;;;;;;15.23;8.07;;;;;;;;;;5094804;28;20072;-38
2022/03/18 02:02:21;;;;;;;15.90;8.57;;;;;;;;;;5095039;28;20099;-38
2022/03/18 02:04:47;;;;;;;9.07;6.80;;;;;;;;;;5095275;28;20157;-38
2022/03/18 02:07:12;;;;;;;19.08;7.07;;;;;;;;;;5095302;28;20031;-38
2022/03/18 02:09:39;;;;;;;17.77;9.98;;;;;;;;;;5093741;28;20483;-38
2022/03/18 02:12:05;;;;;;;20.35;8.45;;;;;;;;;;5094754;28;20419;-38
2022/03/18 02:14:31;;;;;;;15.98;8.82;;;;;;;;;;5095053;28;20050;-38
2022/03/18 02:16:56;;;;;;;17.55;9.13;;;;;;;;;;5095135;28;20170;-38
2022/03/18 02:19:22;;;;;;;16.77;8.02;;;;;;;;;;5094586;28;20111;-38
2022/03/18 02:21:48;;;;;;;12.68;6.13;;;;;;;;;;5093370;28;20030;-38
2022/03/18 02:24:14;;;;;;;16.88;8.48;;;;;;;;;;5094749;28;20024;-38
2022/03/18 02:26:39;;;;;;;19.00;9.20;;;;;;;;;;5094750;28;20103;-38
2022/03/18 02:29:05;;;;;;;19.30;9.55;;;;;;;;;;5094866;28;20028;-38
2022/03/18 02:31:31;;;;;;;16.65;9.15;;;;;;;;;;5094588;28;20105;-38
2022/03/18 02:33:57;;;;;;;19.15;10.27;;;;;;;;;;5094475;28;20470;-38
2022/03/18 02:36:22;;;;;;;21.38;11.13;;;;;;;;;;5094489;28;20028;-38
2022/03/18 02:38:47;;;;;;;16.10;8.43;;;;;;;;;;5094410;28;20056;-38
2022/03/18 02:41:13;;;;;;;16.33;9.35;;;;;;;;;;5092956;28;20487;-38
2022/03/18 02:43:39;;;;;;;16.23;9.38;;;;;;;;;;5093312;28;20028;-38
2022/03/18 02:46:05;;;;;;;19.80;10.45;;;;;;;;;;5094300;28;20070;-38
2022/03/18 02:48:30;;;;;;;17.80;9.25;;;;;;;;;;5094351;28;20458;-38
2022/03/18 02:50:56;;;;;;;22.02;8.82;;;;;;;;;;5094013;28;20071;-38
2022/03/18 02:53:21;;;;;;;16.88;8.95;;;;;;;;;;5094003;28;20032;-38
2022/03/18 02:55:48;;;;;;;15.52;8.40;;;;;;;;;;5094290;28;20024;-38
2022/03/18 02:58:14;;;;;;;17.88;10.10;;;;;;;;;;5094247;28;20119;-38
2022/03/18 03:00:39;;;;;;;18.33;10.65;;;;;;;;;;5093898;28;20150;-38
2022/03/18 03:03:04;;;;;;;20.30;9.32;;;;;;;;;;5092568;28;20123;-38
2022/03/18 03:08:14;;;;;;;20.63;9.50;;;;;;;;;;5093591;28;20028;-38
2022/03/18 03:10:39;;;;;;;13.18;6.82;;;;;;;;;;5092973;28;20035;-38
2022/03/18 03:13:08;;;;;;;19.52;9.10;;;;;;;;;;5092000;28;20035;-38
2022/03/18 03:15:34;;;;;;;15.73;8.27;;;;;;;;;;5093034;28;20046;-38
2022/03/18 03:18:00;;;;;;;17.42;8.55;;;;;;;;;;5093369;28;20051;-38
2022/03/18 03:20:26;;;;;;;20.65;9.52;;;;;;;;;;5093016;28;20044;-38
2022/03/18 03:22:51;;;;;;;21.70;10.77;;;;;;;;;;5093050;28;20431;-38
2022/03/18 03:25:17;;;;;;;22.88;9.48;;;;;;;;;;5093251;28;20451;-38
2022/03/18 03:27:43;;;;;;;17.00;8.50;;;;;;;;;;5092820;28;20070;-38
2022/03/18 03:30:09;;;;;;;15.73;8.35;;;;;;;;;;5092780;28;20062;-38
2022/03/18 03:32:35;;;;;;;15.77;9.15;;;;;;;;;;5092755;28;20120;-38
2022/03/18 03:35:00;;;;;;;19.25;9.20;;;;;;;;;;5093136;28;20016;-38
2022/03/18 03:37:27;;;;;;;21.35;9.05;;;;;;;;;;5092604;28;20032;-38
2022/03/18 03:39:53;;;;;;;18.40;9.70;;;;;;;;;;5092912;28;20020;-38
2022/03/18 03:42:18;;;;;;;17.98;9.52;;;;;;;;;;5092667;28;20497;-38
2022/03/18 03:44:43;;;;;;;18.67;9.00;;;;;;;;;;5092745;28;20024;-38
2022/03/18 03:47:09;;;;;;;17.17;8.52;;;;;;;;;;5092556;28;20554;-38
2022/03/18 03:49:34;;;;;;;17.70;9.43;;;;;;;;;;5092439;28;20032;-38
2022/03/18 03:52:00;;;;;;;15.23;7.22;;;;;;;;;;5092217;28;20139;-38
2022/03/18 03:54:27;;;;;;;18.20;8.65;;;;;;;;;;5092354;28;20099;-38
2022/03/18 03:56:56;;;;;;;19.38;9.43;;;;;;;;;;5091284;28;20085;-39
2022/03/18 03:59:22;;;;;;;15.90;8.52;;;;;;;;;;5090896;28;20016;-41
2022/03/18 04:01:47;;;;;;;12.30;7.45;;;;;;;;;;5092589;28;20032;-38
2022/03/18 04:04:13;;;;;;;18.05;8.85;;;;;;;;;;5092560;28;20032;-38
2022/03/18 04:06:38;;;;;;;17.55;8.90;;;;;;;;;;5092109;28;20481;-38
2022/03/18 04:09:04;;;;;;;15.63;8.07;;;;;;;;;;5092300;28;20024;-38
2022/03/18 04:11:30;;;;;;;19.45;7.57;;;;;;;;;;5092019;28;20114;-38
2022/03/18 04:13:55;;;;;;;14.55;9.23;;;;;;;;;;5092049;28;20077;-38
2022/03/18 04:16:21;;;;;;;12.13;8.57;;;;;;;;;;5090697;28;20093;-38
2022/03/18 04:18:47;;;;;;;13.25;7.47;;;;;;;;;;5092291;28;20060;-38
2022/03/18 04:21:13;;;;;;;12.65;7.10;;;;;;;;;;5091482;28;20067;-38
2022/03/18 04:23:39;;;;;;;18.13;9.77;;;;;;;;;;5091836;28;20020;-38
2022/03/18 04:26:04;;;;;;;12.75;5.93;;;;;;;;;;5091878;28;20029;-38
2022/03/18 04:28:30;;;;;;;15.80;7.50;;;;;;;;;;5091726;28;20050;-38
2022/03/18 04:30:55;;;;;;;11.10;7.50;;;;;;;;;;5091941;28;20127;-38
2022/03/18 04:33:21;;;;;;;6.70;4.95;;;;;;;;;;5091728;28;20469;-38
2022/03/18 04:35:46;;;;;;;9.45;6.10;;;;;;;;;;5091723;28;20040;-38
2022/03/18 04:38:12;;;;;;;10.10;5.60;;;;;;;;;;5091667;28;20039;-38
2022/03/18 04:40:37;;;;;;;9.73;5.85;;;;;;;;;;5091528;28;20032;-38
2022/03/18 04:43:03;;;;;;;26.17;10.25;;;;;;;;;;5090623;28;20024;-38
2022/03/18 04:45:28;;;;;;;48.13;7.53;;;;;;;;;;5091568;28;20038;-38
2022/03/18 04:47:54;;;;;;;16.45;8.50;;;;;;;;;;5091818;28;20059;-38
2022/03/18 04:50:20;;;;;;;19.42;5.47;;;;;;;;;;5091276;28;20039;-38
2022/03/18 04:52:45;;;;;;;18.15;9.13;;;;;;;;;;5090322;28;20028;-38
2022/03/18 04:55:11;;;;;;;15.93;6.80;;;;;;;;;;5091495;28;20030;-38
2022/03/18 04:57:36;;;;;;;16.15;7.47;;;;;;;;;;5091510;28;20020;-38
2022/03/18 05:00:04;;;;;;;12.45;7.53;;;;;;;;;;5091496;28;20099;-38
2022/03/18 05:02:30;;;;;;;21.63;7.05;;;;;;;;;;5091282;28;20034;-38
2022/03/18 05:04:56;;;;;;;15.00;7.72;;;;;;;;;;5091420;28;20028;-38
2022/03/18 05:07:21;;;;;;;16.42;7.22;;;;;;;;;;5091316;28;20056;-38
2022/03/18 05:09:47;;;;;;;15.25;8.10;;;;;;;;;;5091327;28;20032;-38
2022/03/18 05:12:13;;;;;;;12.68;7.22;;;;;;;;;;5091279;28;20032;-39
2022/03/18 05:14:39;;;;;;;10.20;3.90;;;;;;;;;;5091407;28;20032;-38
2022/03/18 05:17:05;;;;;;;14.40;8.38;;;;;;;;;;5091363;28;20031;-38
2022/03/18 05:19:31;;;;;;;11.13;6.45;;;;;;;;;;5091141;28;20024;-38
2022/03/18 05:21:57;;;;;;;15.88;6.80;;;;;;;;;;5091316;28;20015;-38
2022/03/18 05:24:22;;;;;;;13.77;6.63;;;;;;;;;;5091156;28;20043;-38
2022/03/18 05:26:48;;;;;;;18.17;7.75;;;;;;;;;;5091262;28;20058;-38
2022/03/18 05:29:15;;;;;;;10.27;5.68;;;;;;;;;;5091263;28;20063;-38
2022/03/18 05:31:41;;;;;;;15.77;6.72;;;;;;;;;;5091007;28;20664;-38
2022/03/18 05:34:06;;;;;;;10.82;4.95;;;;;;;;;;5093965;28;20039;-38
2022/03/18 05:36:31;;;;;;;12.48;8.10;;;;;;;;;;5095350;28;20358;-38
2022/03/18 05:38:57;;;;;;;14.68;7.07;;;;;;;;;;5095037;28;20386;-38
2022/03/18 05:41:24;;;;;;;12.18;6.30;;;;;;;;;;5095088;28;20028;-38
2022/03/18 05:43:49;;;;;;;10.75;6.25;;;;;;;;;;5094025;28;20350;-38
2022/03/18 05:46:14;;;;;;;11.82;4.80;;;;;;;;;;5093670;28;20028;-38
2022/03/18 05:48:39;;;;;;;9.90;6.10;;;;;;;;;;5094918;28;20319;-38
2022/03/18 05:51:06;;;;;;;18.90;6.65;;;;;;;;;;5094723;28;20044;-38
2022/03/18 05:53:32;;;;;;;11.20;6.03;;;;;;;;;;5094938;28;20442;-38
2022/03/18 05:58:42;;;;;;;11.07;4.90;;;;;;;;;;5094906;28;20039;-38
2022/03/18 06:01:07;;;;;;;13.32;6.63;;;;;;;;;;5094552;28;20129;-37
2022/03/18 06:03:33;;;;;;;11.05;6.40;;;;;;;;;;5094532;28;20052;-37
2022/03/18 06:05:59;;;;;;;11.75;5.60;;;;;;;;;;5094550;28;20052;-38
2022/03/18 06:13:52;;;;;;;9.70;5.65;;;;;;;;;;5094414;28;20389;-38
2022/03/18 06:16:17;;;;;;;8.98;5.70;;;;;;;;;;5094406;28;20020;-37
2022/03/18 06:18:43;;;;;;;9.90;5.40;;;;;;;;;;5093036;28;20493;-38
2022/03/18 06:21:08;;;;;;;6.60;4.55;;;;;;;;;;5094432;28;20397;-38
2022/03/18 06:23:34;;;;;;;7.35;4.05;;;;;;;;;;5094446;28;20351;-38
2022/03/18 06:26:01;;;;;;;8.15;4.53;;;;;;;;;;5094684;28;20024;-38
2022/03/18 06:28:27;;;;;;;5.93;3.55;;;;;;;;;;5094729;28;20096;-37
2022/03/18 06:30:52;;;;;;;8.82;4.18;;;;;;;;;;5094520;28;20685;-37
2022/03/18 06:33:18;;;;;;;10.43;4.85;;;;;;;;;;5094665;28;20354;-38
2022/03/18 06:35:43;;;;;;;12.48;6.43;;;;;;;;;;5092549;28;20030;-38
2022/03/18 06:38:09;;;;;;;10.90;5.35;;;;;;;;;;5094239;28;20067;-37
2022/03/18 06:40:34;;;;;;;8.52;5.68;;;;;;;;;;5093787;28;20020;-38
2022/03/18 06:43:00;;;;;;;15.30;6.88;;;;;;;;;;5094029;28;20020;-38
2022/03/18 06:45:26;;;;;;;10.38;5.70;;;;;;;;;;5093285;28;20107;-38
2022/03/18 06:47:52;;;;;;;14.10;7.30;;;;;;;;;;5093772;28;20096;-37
2022/03/18 06:50:18;;;;;;;12.07;5.43;;;;;;;;;;5093490;28;20206;-38
2022/03/18 06:52:43;;;;;;;11.60;5.63;;;;;;;;;;5093826;28;20044;-37
2022/03/18 06:55:09;;;;;;;8.70;5.95;;;;;;;;;;5093857;28;20026;-38
2022/03/18 06:57:35;;;;;;;10.10;5.22;;;;;;;;;;5093456;28;20359;-37
2022/03/18 07:00:02;;;;;;;12.43;5.30;;;;;;;;;;5092175;28;20016;-38
2022/03/18 07:02:28;;;;;;;10.52;5.20;;;;;;;;;;5093587;28;20074;-38
2022/03/18 07:04:55;;;;;;;12.30;5.75;;;;;;;;;;5092119;28;20129;-37
2022/03/18 07:07:20;;;;;;;14.65;6.25;;;;;;;;;;5093591;28;20474;-38
2022/03/18 07:09:45;;;;;;;13.95;5.78;;;;;;;;;;5093212;28;20031;-38
2022/03/18 07:12:11;;;;;;;11.90;5.72;;;;;;;;;;5093156;28;20072;-38
2022/03/18 07:14:37;;;;;;;14.15;6.07;;;;;;;;;;5093410;28;20077;-38
2022/03/18 07:19:46;;;;;;;11.85;6.95;;;;;;;;;;5093040;28;20485;-38
2022/03/18 07:22:12;;;;;;;10.00;5.07;;;;;;;;;;5093206;28;20016;-38
2022/03/18 07:24:37;;;;;;;8.18;5.57;;;;;;;;;;5092906;28;20028;-38
2022/03/18 07:27:03;;;;;;;13.07;6.47;;;;;;;;;;5093045;28;20354;-38
2022/03/18 07:29:29;;;;;;;6.90;3.95;;;;;;;;;;5092856;28;20028;-37
2022/03/18 07:31:55;;;;;;;9.65;4.95;;;;;;;;;;5093065;28;20153;-38
2022/03/18 07:34:23;;;;;;;11.50;5.80;;;;;;;;;;5093210;28;20465;-38
2022/03/18 07:36:49;;;;;;;14.45;5.53;;;;;;;;;;5093104;28;20107;-37
2022/03/18 07:39:14;;;;;;;9.15;5.75;;;;;;;;;;5092997;28;20147;-38
2022/03/18 07:41:40;;;;;;;11.70;6.13;;;;;;;;;;5092899;28;20023;-38
2022/03/18 07:44:08;;;;;;;10.13;5.40;;;;;;;;;;5092744;28;20024;-38
2022/03/18 07:46:34;;;;;;;9.27;6.25;;;;;;;;;;5092640;28;20525;-38
2022/03/18 07:49:00;;;;;;;13.23;7.60;;;;;;;;;;5092514;28;20050;-38
2022/03/18 07:51:26;;;;;;;8.55;4.25;;;;;;;;;;5092187;28;20134;-37
2022/03/18 07:53:51;;;;;;;11.32;5.88;;;;;;;;;;5092400;28;20458;-37
2022/03/18 07:56:17;;;;;;;10.98;6.55;;;;;;;;;;5091702;28;20028;-38
2022/03/18 07:58:42;;;;;;;9.75;5.43;;;;;;;;;;5092398;28;20028;-38
2022/03/18 08:01:10;;;;;;;8.60;5.45;;;;;;;;;;5092508;28;20017;-38
2022/03/18 08:03:36;;;;;;;10.95;6.35;;;;;;;;;;5090988;28;20216;-37
2022/03/18 08:06:02;;;;;;;12.57;6.57;;;;;;;;;;5092298;28;20017;-38
2022/03/18 08:08:28;;;;;;;10.32;5.35;;;;;;;;;;5092052;28;20081;-38
2022/03/18 08:10:53;;;;;;;10.85;5.05;;;;;;;;;;5092355;28;20032;-38
2022/03/18 08:13:19;;;;;;;9.27;4.88;;;;;;;;;;5092123;28;20428;-37
2022/03/18 08:15:45;;;;;;;11.32;5.95;;;;;;;;;;5090731;28;20024;-38
2022/03/18 08:18:10;;;;;;;13.43;6.55;;;;;;;;;;5090839;28;20047;-40
2022/03/18 08:20:40;;;;;;;10.10;6.10;;;;;;;;;;5091858;28;20024;-37
2022/03/18 08:23:09;;;;;;;12.15;5.85;;;;;;;;;;5091995;28;20032;-38
2022/03/18 08:25:34;;;;;;;13.90;6.18;;;;;;;;;;5092121;28;20020;-37
2022/03/18 08:28:00;;;;;;;12.23;6.40;;;;;;;;;;5091896;28;20046;-37
2022/03/18 08:30:26;;;;;;;11.25;5.88;;;;;;;;;;5091965;28;20027;-39
2022/03/18 08:32:51;;;;;;;12.52;5.63;;;;;;;;;;5091753;28;20438;-37
2022/03/18 08:35:17;;;;;;;14.15;5.10;;;;;;;;;;5091856;28;20012;-38
2022/03/18 08:38:03;;;;;;;14.95;6.65;;;;;;;;;;5091639;28;20058;-38
2022/03/18 08:40:32;;;;;;;10.07;4.30;;;;;;;;;;5091981;28;20067;-39
2022/03/18 08:42:58;;;;;;;12.95;5.57;;;;;;;;;;5091634;28;20016;-37
2022/03/18 08:45:24;;;;;;;11.00;6.30;;;;;;;;;;5091975;28;20381;-38
2022/03/18 08:47:50;;;;;;;16.05;6.55;;;;;;;;;;5091652;28;20028;-38
2022/03/18 08:50:15;;;;;;;9.77;6.60;;;;;;;;;;5091313;28;20031;-37
2022/03/18 08:52:41;;;;;;;15.63;7.80;;;;;;;;;;5091445;28;20117;-38
2022/03/18 08:55:07;;;;;;;10.25;5.93;;;;;;;;;;5091827;28;20035;-38
2022/03/18 08:57:36;;;;;;;17.55;6.55;;;;;;;;;;5091453;28;20023;-38
2022/03/18 09:00:05;;;;;;;7.03;4.43;;;;;;;;;;5091460;28;20035;-38
2022/03/18 09:02:30;;;;;;;6.72;3.70;;;;;;;;;;5091394;28;20020;-38
2022/03/18 09:04:56;;;;;;;5.68;3.50;;;;;;;;;;5091443;28;20089;-38
2022/03/18 09:07:21;;;;;;;6.75;3.75;;;;;;;;;;5092884;28;20027;-38
2022/03/18 09:09:46;;;;;;;10.65;5.40;;;;;;;;;;5095554;28;20445;-38
2022/03/18 09:12:12;;;;;;;11.82;6.28;;;;;;;;;;5095509;28;20054;-38
2022/03/18 09:14:37;;;;;;;6.03;2.67;;;;;;;;;;5095776;28;20085;-38
2022/03/18 09:17:04;;;;;;;10.85;5.55;;;;;;;;;;5095877;28;20036;-38
2022/03/18 09:19:34;;;;;;;8.27;4.10;;;;;;;;;;5095334;28;20056;-39
2022/03/18 09:21:59;;;;;;;8.77;4.72;;;;;;;;;;5095380;28;20754;-38
2022/03/18 09:24:25;;;;;;;6.93;5.13;;;;;;;;;;5095347;28;20032;-38
2022/03/18 09:26:51;;;;;;;10.15;5.28;;;;;;;;;;5095253;28;20028;-38
2022/03/18 09:29:16;;;;;;;10.20;6.10;;;;;;;;;;5094020;28;20397;-38
2022/03/18 09:31:42;;;;;;;12.30;6.78;;;;;;;;;;5095028;28;20036;-38
2022/03/18 09:34:08;;;;;;;8.90;4.30;;;;;;;;;;5095387;28;20792;-38
2022/03/18 09:36:33;;;;;;;7.97;4.85;;;;;;;;;;5095315;28;20475;-38
2022/03/18 09:38:59;;;;;;;13.23;6.30;;;;;;;;;;5095021;28;20032;-38
2022/03/18 09:41:25;;;;;;;10.88;6.07;;;;;;;;;;5095040;28;20020;-38
2022/03/18 09:43:51;;;;;;;7.30;4.93;;;;;;;;;;5095204;28;20052;-38
2022/03/18 09:46:19;;;;;;;11.02;6.03;;;;;;;;;;5094957;28;20107;-38
2022/03/18 09:48:45;;;;;;;8.23;4.45;;;;;;;;;;5094724;28;20034;-38
2022/03/18 09:51:10;;;;;;;10.65;5.78;;;;;;;;;;5094575;28;20043;-38
2022/03/18 09:53:36;;;;;;;11.27;5.72;;;;;;;;;;5095063;28;20024;-38
2022/03/18 09:56:02;;;;;;;9.50;5.70;;;;;;;;;;5094964;28;20020;-38
2022/03/18 09:58:27;;;;;;;13.23;6.75;;;;;;;;;;5094947;28;20538;-38
2022/03/18 10:00:58;;;;;;;8.40;4.53;;;;;;;;;;5094992;28;20024;-38
2022/03/18 10:03:44;;;;;;;11.52;5.50;;;;;;;;;;5094579;28;20043;-37
2022/03/18 10:06:12;;;;;;;11.57;6.85;;;;;;;;;;5094575;28;20385;-38
2022/03/18 10:08:44;;;;;;;12.98;6.68;;;;;;;;;;5094458;28;20119;-38
2022/03/18 10:11:20;;;;;;;12.85;6.20;;;;;;;;;;5094301;28;20403;-38
2022/03/18 10:14:02;;;;;;;8.32;4.88;;;;;;;;;;5094570;28;20413;-38
2022/03/18 10:16:31;;;;;;;10.52;4.90;;;;;;;;;;5092927;28;20028;-37
2022/03/18 10:18:57;;;;;;;9.48;5.60;;;;;;;;;;5093616;28;20024;-38
2022/03/18 10:21:22;;;;;;;13.25;5.72;;;;;;;;;;5094567;28;20035;-38
2022/03/18 10:23:47;;;;;;;4.57;3.40;;;;;;;;;;5094032;28;20020;-38
2022/03/18 10:26:14;;;;;;;11.07;5.90;;;;;;;;;;5094535;28;20042;-38
2022/03/18 10:28:41;;;;;;;12.32;6.15;;;;;;;;;;5094104;28;20028;-39
2022/03/18 10:31:14;;;;;;;11.43;5.90;;;;;;;;;;5094136;28;20032;-38
2022/03/18 10:39:23;;;;;;;9.77;4.22;;;;;;;;;;5094167;28;20047;-38
2022/03/18 10:41:49;;;;;;;13.30;5.88;;;;;;;;;;5092612;28;20027;-38
2022/03/18 10:44:16;;;;;;;7.95;5.53;;;;;;;;;;5094060;28;20024;-38
2022/03/18 10:46:41;;;;;;;9.63;5.50;;;;;;;;;;5093757;28;20027;-39
2022/03/18 10:49:07;;;;;;;9.52;4.72;;;;;;;;;;5093984;28;20020;-38
2022/03/18 10:51:34;;;;;;;10.18;5.90;;;;;;;;;;5093517;28;20088;-39
2022/03/18 10:53:59;;;;;;;7.18;4.55;;;;;;;;;;5093647;28;20032;-37
2022/03/18 10:56:25;;;;;;;8.40;5.03;;;;;;;;;;5093633;28;20069;-39
2022/03/18 10:58:51;;;;;;;9.43;5.70;;;;;;;;;;5093481;28;20020;-38
2022/03/18 11:01:18;;;;;;;7.20;4.78;;;;;;;;;;5093455;28;20035;-37
2022/03/18 11:03:45;;;;;;;12.18;5.82;;;;;;;;;;5093487;28;20085;-38
2022/03/18 11:06:11;;;;;;;8.27;4.40;;;;;;;;;;5093437;28;20044;-38
2022/03/18 11:08:42;;;;;;;10.95;5.43;;;;;;;;;;5093356;28;20063;-38
2022/03/18 11:11:11;;;;;;;8.40;4.55;;;;;;;;;;5093632;28;20453;-38
2022/03/18 11:13:42;;;;;;;8.95;5.32;;;;;;;;;;5092011;28;20385;-38
2022/03/18 11:16:09;;;;;;;7.22;5.68;;;;;;;;;;5093396;28;20028;-38
2022/03/18 11:18:36;;;;;;;7.38;4.70;;;;;;;;;;5093389;28;20123;-38
2022/03/18 11:21:03;;;;;;;9.25;5.72;;;;;;;;;;5093123;28;20500;-38
2022/03/18 11:23:32;;;;;;;8.07;4.60;;;;;;;;;;5093091;28;20020;-38
2022/03/18 11:26:00;;;;;;;11.57;5.72;;;;;;;;;;5092965;28;20062;-38
2022/03/18 11:28:26;;;;;;;8.68;4.68;;;;;;;;;;5092977;28;20016;-38
2022/03/18 11:31:09;;;;;;;9.00;5.60;;;;;;;;;;5091650;28;20028;-37
2022/03/18 11:33:36;;;;;;;8.98;4.85;;;;;;;;;;5092829;28;20073;-38
2022/03/18 11:36:06;;;;;;;9.25;5.22;;;;;;;;;;5092716;28;20385;-39
2022/03/18 11:38:51;;;;;;;10.75;5.38;;;;;;;;;;5092798;28;20036;-38
2022/03/18 11:41:19;;;;;;;12.40;5.63;;;;;;;;;;5092922;28;20038;-38
2022/03/18 11:43:44;;;;;;;11.50;5.70;;;;;;;;;;5092714;28;20020;-38
2022/03/18 11:46:13;;;;;;;9.20;4.72;;;;;;;;;;5092703;28;20040;-38
2022/03/18 11:48:43;;;;;;;7.85;5.05;;;;;;;;;;5092638;28;20473;-38
2022/03/18 11:51:29;;;;;;;14.52;5.57;;;;;;;;;;5092292;28;20052;-38
2022/03/18 11:53:55;;;;;;;9.75;5.80;;;;;;;;;;5092474;28;20470;-38
2022/03/18 11:56:39;;;;;;;11.23;6.22;;;;;;;;;;5092370;28;20028;-38
2022/03/18 11:59:24;;;;;;;6.97;4.35;;;;;;;;;;5091023;28;20110;-38
2022/03/18 12:01:56;;;;;;;9.60;5.80;;;;;;;;;;5092292;28;20545;-38
2022/03/18 12:04:33;;;;;;;9.70;6.68;;;;;;;;;;5092532;28;20040;-38
2022/03/18 12:07:08;;;;;;;8.63;4.90;;;;;;;;;;5092495;28;20028;-38
2022/03/18 12:09:50;;;;;;;13.60;5.97;;;;;;;;;;5092038;28;20524;-38
2022/03/18 12:12:16;;;;;;;9.25;5.88;;;;;;;;;;5092108;28;20042;-38
2022/03/18 12:14:41;;;;;;;7.15;4.68;;;;;;;;;;5092077;28;20373;-38
2022/03/18 12:17:08;;;;;;;7.07;5.00;;;;;;;;;;5092060;28;20102;-38
2022/03/18 12:19:35;;;;;;;9.07;5.55;;;;;;;;;;5091928;28;20038;-38
2022/03/18 12:22:01;;;;;;;9.70;4.93;;;;;;;;;;5092025;28;20405;-38
2022/03/18 12:24:32;;;;;;;7.43;4.95;;;;;;;;;;5091987;28;20023;-38
2022/03/18 12:27:00;;;;;;;8.77;5.65;;;;;;;;;;5091937;28;20436;-38
2022/03/18 12:29:27;;;;;;;9.57;4.45;;;;;;;;;;5091914;28;20039;-38
2022/03/18 12:32:06;;;;;;;11.18;5.90;;;;;;;;;;5091621;28;20035;-38
2022/03/18 12:34:33;;;;;;;11.88;6.13;;;;;;;;;;5092057;28;20077;-38
2022/03/18 12:36:59;;;;;;;11.82;5.90;;;;;;;;;;5090649;28;20020;-38
2022/03/18 12:39:26;;;;;;;10.05;6.53;;;;;;;;;;5091676;28;20016;-38
2022/03/18 12:42:03;;;;;;;15.93;7.20;;;;;;;;;;5091363;28;20020;-38
2022/03/18 12:44:30;;;;;;;11.38;5.22;;;;;;;;;;5092049;28;20499;-38
2022/03/18 12:46:56;;;;;;;8.70;5.32;;;;;;;;;;5091601;28;20535;-38
2022/03/18 12:49:29;;;;;;;11.45;6.53;;;;;;;;;;5091880;28;20024;-38
2022/03/18 12:51:57;;;;;;;14.60;6.57;;;;;;;;;;5091375;28;20051;-38
2022/03/18 12:54:28;;;;;;;12.77;5.68;;;;;;;;;;5091499;28;20501;-38
2022/03/18 12:57:09;;;;;;;7.10;4.40;;;;;;;;;;5090391;28;20470;-39
2022/03/18 12:59:36;;;;;;;9.27;4.88;;;;;;;;;;5090186;28;20024;-38
2022/03/18 13:02:03;;;;;;;10.10;6.32;;;;;;;;;;5090357;28;20032;-38
2022/03/18 13:04:33;;;;;;;9.70;4.07;;;;;;;;;;5091377;28;20441;-38
2022/03/18 13:07:01;;;;;;;17.35;7.25;;;;;;;;;;5091642;28;20629;-38
2022/03/18 13:09:27;;;;;;;9.70;5.65;;;;;;;;;;5090072;28;20024;-38
2022/03/18 13:11:52;;;;;;;11.85;6.05;;;;;;;;;;5091315;28;20523;-38
2022/03/18 13:14:35;;;;;;;10.15;5.55;;;;;;;;;;5091364;28;20531;-38
2022/03/18 13:17:03;;;;;;;7.32;4.43;;;;;;;;;;5091491;28;20028;-38
2022/03/18 13:19:36;;;;;;;11.10;6.47;;;;;;;;;;5091444;28;20024;-39
2022/03/18 13:22:02;;;;;;;8.10;4.35;;;;;;;;;;5091378;28;20024;-38
2022/03/18 13:24:28;;;;;;;11.13;6.88;;;;;;;;;;5091382;28;20380;-38
2022/03/18 13:26:53;;;;;;;12.65;6.05;;;;;;;;;;5091243;28;20035;-38
2022/03/18 13:32:50;;;;;;;12.25;5.15;;;;;;;;;;5091205;28;20373;-38
2022/03/18 13:34:50;;;;;;;9.73;5.65;;;;;;;;;;5091071;28;20101;-38
2022/03/18 13:37:17;;;;;;;9.63;5.03;;;;;;;;;;5091547;28;20020;-38
2022/03/18 13:39:45;;;;;;;12.48;7.00;;;;;;;;;;5091223;28;20092;-38
2022/03/18 13:42:20;;;;;;;13.65;6.25;;;;;;;;;;5091390;28;20031;-38
2022/03/18 13:44:47;;;;;;;12.40;6.43;;;;;;;;;;5091123;28;20029;-38
2022/03/18 13:47:13;;;;;;;10.98;5.63;;;;;;;;;;5091119;28;20483;-38
2022/03/18 13:49:51;;;;;;;13.10;6.28;;;;;;;;;;5091014;28;20500;-38
2022/03/18 13:52:17;;;;;;;10.73;5.68;;;;;;;;;;5090753;28;20526;-38
2022/03/18 13:54:45;;;;;;;12.95;6.63;;;;;;;;;;5092888;28;20036;-38
2022/03/18 13:57:11;;;;;;;11.07;5.88;;;;;;;;;;5095053;28;20511;-38
2022/03/18 13:59:37;;;;;;;16.33;6.25;;;;;;;;;;5093338;28;20466;-39
2022/03/18 14:02:08;;;;;;;13.52;6.28;;;;;;;;;;5094739;28;20028;-38
2022/03/18 14:04:41;;;;;;;8.57;5.47;;;;;;;;;;5094505;28;20533;-38
2022/03/18 14:07:09;;;;;;;8.60;5.63;;;;;;;;;;5094573;28;20110;-38
2022/03/18 14:09:35;;;;;;;12.48;6.32;;;;;;;;;;5094397;28;20039;-37
2022/03/18 14:12:10;;;;;;;14.38;7.05;;;;;;;;;;5094399;28;20048;-37
2022/03/18 14:14:37;;;;;;;10.45;5.93;;;;;;;;;;5094415;28;20028;-37
2022/03/18 14:17:05;;;;;;;10.18;5.30;;;;;;;;;;5093176;28;20020;-38
2022/03/18 14:20:00;;;;;;;13.55;6.20;;;;;;;;;;5094166;28;20401;-38
2022/03/18 14:22:32;;;;;;;11.52;5.68;;;;;;;;;;5076614;28;20055;-38
2022/03/18 14:24:58;;;;;;;10.30;6.20;;;;;;;;;;5094563;28;20035;-38
2022/03/18 14:27:25;;;;;;;11.80;5.72;;;;;;;;;;5094183;28;20393;-38
2022/03/18 14:29:53;;;;;;;15.18;6.32;;;;;;;;;;5094088;28;20500;-38
2022/03/18 14:32:19;;;;;;;10.48;5.97;;;;;;;;;;5094081;28;20469;-38
2022/03/18 14:34:48;;;;;;;10.57;6.25;;;;;;;;;;5092690;28;20038;-37
2022/03/18 14:37:18;;;;;;;10.23;6.07;;;;;;;;;;5093955;28;20030;-38
2022/03/18 14:39:44;;;;;;;10.70;5.28;;;;;;;;;;5093756;28;20031;-37
2022/03/18 14:42:10;;;;;;;12.98;5.90;;;;;;;;;;5093890;28;20020;-38
2022/03/18 14:44:37;;;;;;;12.35;6.20;;;;;;;;;;5093892;28;20028;-37
2022/03/18 14:47:04;;;;;;;12.52;5.90;;;;;;;;;;5094024;28;20028;-38
2022/03/18 14:49:30;;;;;;;11.88;7.03;;;;;;;;;;5093828;28;20024;-37
2022/03/18 14:51:56;;;;;;;11.77;6.30;;;;;;;;;;5075302;28;20063;-38
2022/03/18 14:57:11;;;;;;;9.02;5.65;;;;;;;;;;5093726;28;20081;-38
2022/03/18 14:59:39;;;;;;;13.55;5.30;;;;;;;;;;5093480;28;20412;-38
2022/03/18 15:02:05;;;;;;;11.52;6.07;;;;;;;;;;5092296;28;20024;-38
2022/03/18 15:04:31;;;;;;;12.95;5.32;;;;;;;;;;5093497;28;20100;-38